createdAt,value
2017-12-03T00:01:03.221Z,4.80
2017-12-03T00:03:31.022Z,4.80
2017-12-03T00:05:58.584Z,4.80
2017-12-03T00:08:26.139Z,4.70
2017-12-03T00:10:53.668Z,4.60
2017-12-03T00:13:21.221Z,4.60
2017-12-03T00:15:48.796Z,4.70
2017-12-03T00:18:16.364Z,4.70
2017-12-03T00:20:44.146Z,4.70
2017-12-03T00:23:11.705Z,4.70
2017-12-03T00:25:39.225Z,4.80
2017-12-03T00:28:06.811Z,4.90
2017-12-03T00:30:34.382Z,4.80
2017-12-03T00:33:01.908Z,4.90
2017-12-03T00:35:29.507Z,4.90
2017-12-03T00:38:02.137Z,4.80
2017-12-03T00:40:30.485Z,4.70
2017-12-03T00:42:58.009Z,4.70
2017-12-03T00:45:25.571Z,4.70
2017-12-03T00:47:53.141Z,4.80
2017-12-03T00:50:20.677Z,4.80
2017-12-03T00:52:48.197Z,4.90
2017-12-03T00:55:15.785Z,4.80
2017-12-03T00:57:45.395Z,4.90
2017-12-03T01:00:13.386Z,4.90
2017-12-03T01:02:40.940Z,4.80
2017-12-03T01:05:08.506Z,4.80
2017-12-03T01:07:36.025Z,4.90
2017-12-03T01:10:04.332Z,4.90
2017-12-03T01:12:32.254Z,4.90
2017-12-03T01:14:59.827Z,4.90
2017-12-03T01:17:28.116Z,4.80
2017-12-03T01:19:55.643Z,4.70
2017-12-03T01:22:23.232Z,4.80
2017-12-03T01:24:50.891Z,4.80
2017-12-03T01:27:18.414Z,4.90
2017-12-03T01:29:46.026Z,4.70
2017-12-03T01:32:13.569Z,4.70
2017-12-03T01:34:41.093Z,4.70
2017-12-03T01:37:08.653Z,4.60
2017-12-03T01:39:36.178Z,4.70
2017-12-03T01:42:03.901Z,4.60
2017-12-03T01:44:31.457Z,4.50
2017-12-03T01:46:58.988Z,4.50
2017-12-03T01:49:26.562Z,4.60
2017-12-03T01:51:54.171Z,4.70
2017-12-03T01:54:21.697Z,4.60
2017-12-03T01:56:49.987Z,4.70
2017-12-03T01:59:17.677Z,4.70
2017-12-03T02:01:45.206Z,4.80
2017-12-03T02:04:13.559Z,4.60
2017-12-03T02:06:41.134Z,4.60
2017-12-03T02:09:09.105Z,4.60
2017-12-03T02:11:36.666Z,4.60
2017-12-03T02:14:05.031Z,4.50
2017-12-03T02:16:33.377Z,4.40
2017-12-03T02:19:00.980Z,4.40
2017-12-03T02:21:28.753Z,4.40
2017-12-03T02:23:56.334Z,4.50
2017-12-03T02:26:23.862Z,4.40
2017-12-03T02:28:51.555Z,4.40
2017-12-03T02:31:19.099Z,4.50
2017-12-03T02:33:46.674Z,4.40
2017-12-03T02:36:14.221Z,4.40
2017-12-03T02:38:41.765Z,4.40
2017-12-03T02:41:09.328Z,4.40
2017-12-03T02:43:36.841Z,3.40
2017-12-03T02:46:04.414Z,4.60
2017-12-03T02:48:32.027Z,4.50
2017-12-03T02:50:59.581Z,4.50
2017-12-03T02:53:27.201Z,4.50
2017-12-03T02:55:54.711Z,4.40
2017-12-03T02:58:27.496Z,4.40
2017-12-03T03:00:55.036Z,4.40
2017-12-03T03:03:23.316Z,4.50
2017-12-03T03:05:50.892Z,4.50
2017-12-03T03:08:18.414Z,4.50
2017-12-03T03:10:45.936Z,4.60
2017-12-03T03:13:13.510Z,4.60
2017-12-03T03:15:41.044Z,4.60
2017-12-03T03:18:08.600Z,4.50
2017-12-03T03:20:36.123Z,4.40
2017-12-03T03:23:03.673Z,4.40
2017-12-03T03:25:31.251Z,4.50
2017-12-03T03:27:59.532Z,4.50
2017-12-03T03:30:27.829Z,4.60
2017-12-03T03:32:55.348Z,4.60
2017-12-03T03:35:22.906Z,4.70
2017-12-03T03:37:50.429Z,4.80
2017-12-03T03:40:17.980Z,4.70
2017-12-03T03:42:45.516Z,4.70
2017-12-03T03:45:13.040Z,4.60
2017-12-03T03:47:40.592Z,4.70
2017-12-03T03:50:08.112Z,4.50
2017-12-03T03:52:35.675Z,4.50
2017-12-03T03:55:03.212Z,4.50
2017-12-03T03:57:30.758Z,4.50
2017-12-03T03:59:58.324Z,4.50
2017-12-03T04:02:26.656Z,4.40
2017-12-03T04:04:54.216Z,4.50
2017-12-03T04:07:21.735Z,4.50
2017-12-03T04:09:49.655Z,4.40
2017-12-03T04:12:17.216Z,4.40
2017-12-03T04:14:44.766Z,4.30
2017-12-03T04:17:12.332Z,4.20
2017-12-03T04:19:39.848Z,4.10
2017-12-03T04:22:07.351Z,4.10
2017-12-03T04:24:34.927Z,4.20
2017-12-03T04:27:02.471Z,4.30
2017-12-03T04:29:30.022Z,4.20
2017-12-03T04:31:57.541Z,4.10
2017-12-03T04:34:25.516Z,4.20
2017-12-03T04:36:53.062Z,4.10
2017-12-03T04:39:20.612Z,4.20
2017-12-03T04:41:48.158Z,4.30
2017-12-03T04:44:16.474Z,4.50
2017-12-03T04:46:44.338Z,4.50
2017-12-03T04:49:11.883Z,4.50
2017-12-03T04:51:39.431Z,4.40
2017-12-03T04:54:06.945Z,4.30
2017-12-03T04:56:34.479Z,4.40
2017-12-03T04:59:02.023Z,4.40
2017-12-03T05:01:29.588Z,4.40
2017-12-03T05:03:57.164Z,4.40
2017-12-03T05:06:24.684Z,4.30
2017-12-03T05:08:52.222Z,4.30
2017-12-03T05:11:19.772Z,4.40
2017-12-03T05:13:47.331Z,4.40
2017-12-03T05:16:14.847Z,4.50
2017-12-03T05:18:42.399Z,4.30
2017-12-03T05:21:09.911Z,4.40
2017-12-03T05:23:37.447Z,4.40
2017-12-03T05:26:05.003Z,4.50
2017-12-03T05:28:32.520Z,4.50
2017-12-03T05:31:00.107Z,4.60
2017-12-03T05:33:27.619Z,4.60
2017-12-03T05:35:55.139Z,4.50
2017-12-03T05:38:22.687Z,4.50
2017-12-03T05:40:50.243Z,4.40
2017-12-03T05:43:17.756Z,4.40
2017-12-03T05:45:45.319Z,4.30
2017-12-03T05:48:12.897Z,4.30
2017-12-03T05:50:41.197Z,4.40
2017-12-03T05:53:08.758Z,4.40
2017-12-03T05:55:36.343Z,4.40
2017-12-03T05:58:03.850Z,4.40
2017-12-03T06:00:31.427Z,4.40
2017-12-03T06:02:58.937Z,4.50
2017-12-03T06:05:26.816Z,4.50
2017-12-03T06:07:54.325Z,4.50
2017-12-03T06:10:21.843Z,4.50
2017-12-03T06:12:50.164Z,4.40
2017-12-03T06:15:17.701Z,4.40
2017-12-03T06:17:45.245Z,4.40
2017-12-03T06:20:12.795Z,4.40
2017-12-03T06:22:40.370Z,4.40
2017-12-03T06:25:08.701Z,4.40
2017-12-03T06:27:36.247Z,4.40
2017-12-03T06:30:03.749Z,4.30
2017-12-03T06:32:31.288Z,4.50
2017-12-03T06:34:58.845Z,4.40
2017-12-03T06:37:26.676Z,4.50
2017-12-03T06:39:54.211Z,4.60
2017-12-03T06:42:21.736Z,4.50
2017-12-03T06:44:49.260Z,4.40
2017-12-03T06:47:16.846Z,4.40
2017-12-03T06:49:44.374Z,4.60
2017-12-03T06:52:11.920Z,4.50
2017-12-03T06:54:39.466Z,4.50
2017-12-03T06:57:07.788Z,4.50
2017-12-03T06:59:35.366Z,4.50
2017-12-03T07:02:02.901Z,4.50
2017-12-03T07:04:30.427Z,4.40
2017-12-03T07:06:57.981Z,4.30
2017-12-03T07:09:26.693Z,4.30
2017-12-03T07:11:54.231Z,4.30
2017-12-03T07:14:21.764Z,4.40
2017-12-03T07:16:49.318Z,4.40
2017-12-03T07:19:16.889Z,4.40
2017-12-03T07:21:44.449Z,4.40
2017-12-03T07:24:11.997Z,4.50
2017-12-03T07:26:39.531Z,4.50
2017-12-03T07:29:07.068Z,4.40
2017-12-03T07:31:34.625Z,4.50
2017-12-03T07:34:02.179Z,4.50
2017-12-03T07:36:29.708Z,4.70
2017-12-03T07:38:57.244Z,4.70
2017-12-03T07:41:24.799Z,4.70
2017-12-03T07:43:52.320Z,4.70
2017-12-03T07:46:19.906Z,4.70
2017-12-03T07:48:47.439Z,4.60
2017-12-03T07:51:14.976Z,4.50
2017-12-03T07:53:43.252Z,4.50
2017-12-03T07:56:10.812Z,4.50
2017-12-03T07:58:38.386Z,4.60
2017-12-03T08:01:05.963Z,4.50
2017-12-03T08:03:33.484Z,4.50
2017-12-03T08:06:01.816Z,4.40
2017-12-03T08:08:29.331Z,4.40
2017-12-03T08:10:57.651Z,4.50
2017-12-03T08:13:25.245Z,4.40
2017-12-03T08:15:52.803Z,4.60
2017-12-03T08:18:20.777Z,4.60
2017-12-03T08:20:48.312Z,4.50
2017-12-03T08:23:15.847Z,4.50
2017-12-03T08:25:43.387Z,4.50
2017-12-03T08:28:10.936Z,4.60
2017-12-03T08:30:38.448Z,4.60
2017-12-03T08:33:05.987Z,4.60
2017-12-03T08:35:33.503Z,4.70
2017-12-03T08:38:01.836Z,4.60
2017-12-03T08:40:29.384Z,4.60
2017-12-03T08:42:56.912Z,4.60
2017-12-03T08:45:25.228Z,4.60
2017-12-03T08:47:53.049Z,4.60
2017-12-03T08:50:20.573Z,4.60
2017-12-03T08:52:48.116Z,4.50
2017-12-03T08:55:15.859Z,4.60
2017-12-03T08:57:43.430Z,4.70
2017-12-03T09:00:10.988Z,4.70
2017-12-03T09:02:38.645Z,4.70
2017-12-03T09:05:06.711Z,4.80
2017-12-03T09:07:34.216Z,4.70
2017-12-03T09:10:01.728Z,4.70
2017-12-03T09:12:29.276Z,4.80
2017-12-03T09:14:56.823Z,4.90
2017-12-03T09:17:24.347Z,4.90
2017-12-03T09:19:52.212Z,4.90
2017-12-03T09:22:19.733Z,4.90
2017-12-03T09:24:47.267Z,4.80
2017-12-03T09:27:14.829Z,4.90
2017-12-03T09:29:42.404Z,4.90
2017-12-03T09:32:09.956Z,5.00
2017-12-03T09:34:37.517Z,5.00
2017-12-03T09:37:05.088Z,4.90
2017-12-03T09:39:32.849Z,4.90
2017-12-03T09:42:00.388Z,4.90
2017-12-03T09:44:28.710Z,5.00
2017-12-03T09:46:56.262Z,5.00
2017-12-03T09:49:23.776Z,5.00
2017-12-03T09:51:51.364Z,5.00
2017-12-03T09:54:18.889Z,5.00
2017-12-03T09:56:47.200Z,5.10
2017-12-03T09:59:14.773Z,5.00
2017-12-03T10:01:42.325Z,5.10
2017-12-03T10:04:09.869Z,5.10
2017-12-03T10:06:37.426Z,5.10
2017-12-03T10:09:04.962Z,5.10
2017-12-03T10:11:32.521Z,5.00
2017-12-03T10:14:00.043Z,5.00
2017-12-03T10:16:27.602Z,5.00
2017-12-03T10:18:55.128Z,5.00
2017-12-03T10:21:22.681Z,5.00
2017-12-03T10:23:50.266Z,5.00
2017-12-03T10:26:17.822Z,5.00
2017-12-03T10:28:45.384Z,4.90
2017-12-03T10:31:12.992Z,5.10
2017-12-03T10:33:40.559Z,5.10
2017-12-03T10:36:08.080Z,5.10
2017-12-03T10:38:35.619Z,5.20
2017-12-03T10:41:03.140Z,5.10
2017-12-03T10:43:31.472Z,5.00
2017-12-03T10:45:59.021Z,5.00
2017-12-03T10:48:26.560Z,5.00
2017-12-03T10:50:54.093Z,5.00
2017-12-03T10:53:22.429Z,5.00
2017-12-03T10:55:49.966Z,5.00
2017-12-03T10:58:17.521Z,5.00
2017-12-03T11:00:45.078Z,5.00
2017-12-03T11:03:12.639Z,5.00
2017-12-03T11:05:40.160Z,4.90
2017-12-03T11:08:07.677Z,4.90
2017-12-03T11:10:35.268Z,5.00
2017-12-03T11:13:02.834Z,5.00
2017-12-03T11:15:30.365Z,5.00
2017-12-03T11:17:57.906Z,5.00
2017-12-03T11:20:25.464Z,5.10
2017-12-03T11:22:53.233Z,5.10
2017-12-03T11:25:20.790Z,5.20
2017-12-03T11:27:49.067Z,5.10
2017-12-03T11:30:16.640Z,5.10
2017-12-03T11:32:44.180Z,5.10
2017-12-03T11:35:11.724Z,5.10
2017-12-03T11:37:39.252Z,5.10
2017-12-03T11:40:06.819Z,5.10
2017-12-03T11:42:34.345Z,5.10
2017-12-03T11:45:01.887Z,5.10
2017-12-03T11:47:29.421Z,4.90
2017-12-03T11:49:57.000Z,5.00
2017-12-03T11:52:24.611Z,5.00
2017-12-03T11:54:52.183Z,5.00
2017-12-03T11:57:19.711Z,5.00
2017-12-03T11:59:47.255Z,4.90
2017-12-03T12:02:14.816Z,4.90
2017-12-03T12:04:42.330Z,5.00
2017-12-03T12:07:09.888Z,5.00
2017-12-03T12:09:38.208Z,4.70
2017-12-03T12:12:05.739Z,4.70
2017-12-03T12:14:33.311Z,4.80
2017-12-03T12:17:00.834Z,4.90
2017-12-03T12:19:28.405Z,4.90
2017-12-03T12:21:56.758Z,4.90
2017-12-03T12:24:24.355Z,4.90
2017-12-03T12:26:52.011Z,4.90
2017-12-03T12:29:19.575Z,4.90
2017-12-03T12:31:47.171Z,4.90
2017-12-03T12:34:14.958Z,5.00
2017-12-03T12:36:42.609Z,4.90
2017-12-03T12:39:10.153Z,4.90
2017-12-03T12:41:37.672Z,5.00
2017-12-03T12:44:06.009Z,5.10
2017-12-03T12:46:33.617Z,5.10
2017-12-03T12:49:01.913Z,5.20
2017-12-03T12:51:29.513Z,5.10
2017-12-03T12:53:57.145Z,5.20
2017-12-03T12:56:25.283Z,5.20
2017-12-03T12:58:54.020Z,5.30
2017-12-03T13:01:21.530Z,5.20
2017-12-03T13:03:49.427Z,5.20
2017-12-03T13:06:16.959Z,5.20
2017-12-03T13:08:44.654Z,5.10
2017-12-03T13:11:12.182Z,5.00
2017-12-03T13:13:39.735Z,5.10
2017-12-03T13:16:07.259Z,5.20
2017-12-03T13:18:34.856Z,5.20
2017-12-03T13:21:02.454Z,5.20
2017-12-03T13:23:29.968Z,5.20
2017-12-03T13:25:58.283Z,5.10
2017-12-03T13:28:25.832Z,5.00
2017-12-03T13:30:53.436Z,5.10
2017-12-03T13:33:20.964Z,4.90
2017-12-03T13:35:48.491Z,4.80
2017-12-03T13:38:16.040Z,4.70
2017-12-03T13:40:44.051Z,4.60
2017-12-03T13:43:11.619Z,4.70
2017-12-03T13:45:39.221Z,4.60
2017-12-03T13:48:06.836Z,4.60
2017-12-03T13:50:34.389Z,4.70
2017-12-03T13:53:01.902Z,4.80
2017-12-03T13:55:29.460Z,4.70
2017-12-03T13:57:56.972Z,4.80
2017-12-03T14:00:24.571Z,4.80
2017-12-03T14:02:52.140Z,4.70
2017-12-03T14:05:20.777Z,4.70
2017-12-03T14:07:48.306Z,4.70
2017-12-03T14:10:15.874Z,4.60
2017-12-03T14:12:43.440Z,4.50
2017-12-03T14:15:10.977Z,4.50
2017-12-03T14:17:38.510Z,4.40
2017-12-03T14:20:06.160Z,4.40
2017-12-03T14:22:33.752Z,4.40
2017-12-03T14:25:01.276Z,4.20
2017-12-03T14:27:28.832Z,4.20
2017-12-03T14:29:56.375Z,4.20
2017-12-03T14:32:23.970Z,4.20
2017-12-03T14:34:51.496Z,4.30
2017-12-03T14:37:19.013Z,4.30
2017-12-03T14:39:46.572Z,4.20
2017-12-03T14:42:14.170Z,4.10
2017-12-03T14:44:41.809Z,4.20
2017-12-03T14:47:09.390Z,4.10
2017-12-03T14:49:36.924Z,4.10
2017-12-03T14:52:04.466Z,4.10
2017-12-03T14:54:32.010Z,4.10
2017-12-03T14:56:59.568Z,4.00
2017-12-03T14:59:27.102Z,4.00
2017-12-03T15:01:54.626Z,4.00
2017-12-03T15:04:22.187Z,4.00
2017-12-03T15:06:50.531Z,4.00
2017-12-03T15:09:18.147Z,4.00
2017-12-03T15:11:45.674Z,3.90
2017-12-03T15:14:13.270Z,4.00
2017-12-03T15:16:40.792Z,3.80
2017-12-03T15:19:08.327Z,3.70
2017-12-03T15:21:35.860Z,3.80
2017-12-03T15:24:03.435Z,3.90
2017-12-03T15:26:31.830Z,3.90
2017-12-03T15:28:59.360Z,3.80
2017-12-03T15:31:27.004Z,3.80
2017-12-03T15:33:54.769Z,3.80
2017-12-03T15:36:22.322Z,3.80
2017-12-03T15:38:50.756Z,3.80
2017-12-03T15:41:18.324Z,3.80
2017-12-03T15:43:46.639Z,3.90
2017-12-03T15:46:14.248Z,3.90
2017-12-03T15:48:41.788Z,4.00
2017-12-03T15:51:09.383Z,3.80
2017-12-03T15:53:37.688Z,4.00
2017-12-03T15:56:05.300Z,4.00
2017-12-03T15:58:32.837Z,4.10
2017-12-03T16:01:00.410Z,4.10
2017-12-03T16:03:27.982Z,4.10
2017-12-03T16:05:55.512Z,4.00
2017-12-03T16:08:23.112Z,3.90
2017-12-03T16:10:50.632Z,3.80
2017-12-03T16:13:18.176Z,3.90
2017-12-03T16:15:45.751Z,3.90
2017-12-03T16:18:13.342Z,3.90
2017-12-03T16:20:40.905Z,3.90
2017-12-03T16:23:08.439Z,3.90
2017-12-03T16:25:36.006Z,3.80
2017-12-03T16:28:03.564Z,3.80
2017-12-03T16:30:31.117Z,3.80
2017-12-03T16:32:58.688Z,4.00
2017-12-03T16:35:26.221Z,3.90
2017-12-03T16:37:53.776Z,3.90
2017-12-03T16:40:21.367Z,3.90
2017-12-03T16:42:48.879Z,4.00
2017-12-03T16:45:16.441Z,3.90
2017-12-03T16:47:43.983Z,3.90
2017-12-03T16:50:12.277Z,3.70
2017-12-03T16:52:39.832Z,3.80
2017-12-03T16:55:07.395Z,3.80
2017-12-03T16:57:35.133Z,3.80
2017-12-03T17:00:02.680Z,3.70
2017-12-03T17:02:30.281Z,3.70
2017-12-03T17:04:57.827Z,3.70
2017-12-03T17:07:25.405Z,3.80
2017-12-03T17:09:52.962Z,3.80
2017-12-03T17:12:20.484Z,3.80
2017-12-03T17:14:48.047Z,3.70
2017-12-03T17:17:15.624Z,3.60
2017-12-03T17:19:43.197Z,3.70
2017-12-03T17:22:10.756Z,3.70
2017-12-03T17:24:38.326Z,3.80
2017-12-03T17:27:05.858Z,3.70
2017-12-03T17:29:34.258Z,3.60
2017-12-03T17:32:02.623Z,3.60
2017-12-03T17:34:30.940Z,3.60
2017-12-03T17:36:58.458Z,3.60
2017-12-03T17:39:26.021Z,3.60
2017-12-03T17:41:53.560Z,3.50
2017-12-03T17:44:21.864Z,3.60
2017-12-03T17:46:49.412Z,3.60
2017-12-03T17:49:17.745Z,3.70
2017-12-03T17:51:45.362Z,3.70
2017-12-03T17:54:12.947Z,3.70
2017-12-03T17:56:40.512Z,3.60
2017-12-03T17:59:08.041Z,3.50
2017-12-03T18:01:35.593Z,3.50
2017-12-03T18:04:03.153Z,3.50
2017-12-03T18:06:31.468Z,3.60
2017-12-03T18:08:58.994Z,3.60
2017-12-03T18:11:27.315Z,3.70
2017-12-03T18:13:54.847Z,3.60
2017-12-03T18:16:22.399Z,3.60
2017-12-03T18:18:49.924Z,3.70
2017-12-03T18:21:17.509Z,3.80
2017-12-03T18:23:45.819Z,3.90
2017-12-03T18:26:13.419Z,3.90
2017-12-03T18:28:40.982Z,3.90
2017-12-03T18:31:08.510Z,3.80
2017-12-03T18:33:36.065Z,3.70
2017-12-03T18:36:03.685Z,3.70
2017-12-03T18:38:31.283Z,3.70
2017-12-03T18:40:59.604Z,3.60
2017-12-03T18:43:28.046Z,3.60
2017-12-03T18:45:55.564Z,3.60
2017-12-03T18:48:23.163Z,3.60
2017-12-03T18:50:50.683Z,3.50
2017-12-03T18:53:18.248Z,3.60
2017-12-03T18:55:45.799Z,3.50
2017-12-03T18:58:13.363Z,3.60
2017-12-03T19:00:41.706Z,3.70
2017-12-03T19:03:09.290Z,3.70
2017-12-03T19:05:36.859Z,3.70
2017-12-03T19:08:05.237Z,3.70
2017-12-03T19:10:32.883Z,3.70
2017-12-03T19:13:00.437Z,3.60
2017-12-03T19:15:28.004Z,3.70
2017-12-03T19:17:56.950Z,3.80
2017-12-03T19:20:25.454Z,3.80
2017-12-03T19:22:53.073Z,3.80
2017-12-03T19:25:20.681Z,3.70
2017-12-03T19:27:48.239Z,3.70
2017-12-03T19:30:15.777Z,3.80
2017-12-03T19:32:43.353Z,3.70
2017-12-03T19:35:10.937Z,3.70
2017-12-03T19:37:38.528Z,3.70
2017-12-03T19:40:06.088Z,3.70
2017-12-03T19:42:33.735Z,3.70
2017-12-03T19:45:01.522Z,3.70
2017-12-03T19:47:29.087Z,3.70
2017-12-03T19:49:56.672Z,3.70
2017-12-03T19:52:24.206Z,3.70
2017-12-03T19:54:51.864Z,3.70
2017-12-03T19:57:19.456Z,3.70
2017-12-03T19:59:47.055Z,3.80
2017-12-03T20:02:14.657Z,3.90
2017-12-03T20:04:42.291Z,3.90
2017-12-03T20:07:09.876Z,3.90
2017-12-03T20:09:37.425Z,3.80
2017-12-03T20:12:04.991Z,3.80
2017-12-03T20:14:32.633Z,3.90
2017-12-03T20:17:00.238Z,3.70
2017-12-03T20:19:27.773Z,3.80
2017-12-03T20:21:55.332Z,3.80
2017-12-03T20:24:22.891Z,3.90
2017-12-03T20:26:50.407Z,3.90
2017-12-03T20:29:18.807Z,3.90
2017-12-03T20:31:46.377Z,3.90
2017-12-03T20:34:13.947Z,3.90
2017-12-03T20:36:41.530Z,3.90
2017-12-03T20:39:09.144Z,3.90
2017-12-03T20:41:36.680Z,3.80
2017-12-03T20:44:04.240Z,3.90
2017-12-03T20:46:31.764Z,3.90
2017-12-03T20:48:59.311Z,3.90
2017-12-03T20:51:26.865Z,3.90
2017-12-03T20:53:54.403Z,4.00
2017-12-03T20:56:22.704Z,3.90
2017-12-03T20:58:50.242Z,3.90
2017-12-03T21:01:17.800Z,3.80
2017-12-03T21:03:45.335Z,3.80
2017-12-03T21:06:12.896Z,3.80
2017-12-03T21:08:40.412Z,3.80
2017-12-03T21:11:08.005Z,3.70
2017-12-03T21:13:35.564Z,3.80
2017-12-03T21:16:03.094Z,3.80
2017-12-03T21:18:30.709Z,3.80
2017-12-03T21:20:59.065Z,3.80
2017-12-03T21:23:27.383Z,3.80
2017-12-03T21:25:54.975Z,3.80
2017-12-03T21:28:22.722Z,3.80
2017-12-03T21:30:50.280Z,3.70
2017-12-03T21:33:17.793Z,3.70
2017-12-03T21:35:45.350Z,3.80
2017-12-03T21:38:13.697Z,3.80
2017-12-03T21:40:41.223Z,3.80
2017-12-03T21:43:08.821Z,3.90
2017-12-03T21:45:36.409Z,3.80
2017-12-03T21:48:04.734Z,3.80
2017-12-03T21:50:32.312Z,3.80
2017-12-03T21:52:59.847Z,3.80
2017-12-03T21:55:27.374Z,3.70
2017-12-03T21:57:54.969Z,3.80
2017-12-03T22:00:22.520Z,3.80
2017-12-03T22:02:50.087Z,3.70
2017-12-03T22:05:17.704Z,3.80
2017-12-03T22:07:45.335Z,3.80
2017-12-03T22:10:12.897Z,3.80
2017-12-03T22:12:40.420Z,3.80
2017-12-03T22:15:08.011Z,3.90
2017-12-03T22:17:35.528Z,3.90
2017-12-03T22:20:03.808Z,3.90
2017-12-03T22:22:31.352Z,3.90
2017-12-03T22:24:59.643Z,3.90
2017-12-03T22:27:27.213Z,3.90
2017-12-03T22:29:54.770Z,3.90
2017-12-03T22:32:22.292Z,3.90
2017-12-03T22:34:49.860Z,3.90
2017-12-03T22:37:17.380Z,3.90
2017-12-03T22:39:44.904Z,4.00
2017-12-03T22:42:12.508Z,4.00
2017-12-03T22:44:40.028Z,4.00
2017-12-03T22:47:07.603Z,4.00
2017-12-03T22:49:35.183Z,4.00
2017-12-03T22:52:02.748Z,4.10
2017-12-03T22:54:30.304Z,4.10
2017-12-03T22:56:57.859Z,4.00
2017-12-03T22:59:25.411Z,3.90
2017-12-03T23:01:52.983Z,4.00
2017-12-03T23:04:35.347Z,3.90
2017-12-03T23:07:02.896Z,3.80
2017-12-03T23:09:30.407Z,3.90
2017-12-03T23:11:57.960Z,3.90
2017-12-03T23:14:25.505Z,3.80
2017-12-03T23:16:53.850Z,3.80
2017-12-03T23:19:22.177Z,3.80
2017-12-03T23:21:49.709Z,3.80
2017-12-03T23:24:17.255Z,3.90
2017-12-03T23:26:44.797Z,3.90
2017-12-03T23:29:12.352Z,4.10
2017-12-03T23:31:39.873Z,4.10
2017-12-03T23:34:07.419Z,4.00
2017-12-03T23:36:34.975Z,4.00
2017-12-03T23:39:02.535Z,4.00
2017-12-03T23:41:30.051Z,4.00
2017-12-03T23:43:57.617Z,4.00
2017-12-03T23:46:25.169Z,4.10
2017-12-03T23:48:52.681Z,4.00
2017-12-03T23:51:20.244Z,4.10
2017-12-03T23:53:47.762Z,4.00
2017-12-03T23:56:15.308Z,4.00
2017-12-03T23:58:43.612Z,4.00
